createdAt,value
2019-02-22T00:00:31.004Z,100.25
2019-02-22T00:01:35.384Z,117.28
2019-02-22T00:02:28.864Z,99.70
2019-02-22T00:03:04.584Z,64.58
2019-02-22T00:03:39.931Z,72.65
2019-02-22T00:04:15.291Z,57.23
2019-02-22T00:04:50.704Z,69.05
2019-02-22T00:05:26.168Z,96.55
2019-02-22T00:06:01.544Z,87.70
2019-02-22T00:06:37.065Z,94.37
2019-02-22T00:07:12.852Z,82.57
2019-02-22T00:07:48.272Z,80.28
2019-02-22T00:08:23.887Z,87.72
2019-02-22T00:08:59.305Z,83.95
2019-02-22T00:09:34.864Z,76.57
2019-02-22T00:10:10.832Z,80.87
2019-02-22T00:10:46.435Z,85.05
2019-02-22T00:11:21.847Z,85.20
2019-02-22T00:11:57.311Z,97.60
2019-02-22T00:12:32.754Z,90.15
2019-02-22T00:13:08.293Z,71.90
2019-02-22T00:13:43.593Z,84.07
2019-02-22T00:14:19.114Z,103.50
2019-02-22T00:14:54.508Z,102.38
2019-02-22T00:15:30.128Z,97.80
2019-02-22T00:16:05.614Z,98.15
2019-02-22T00:16:41.027Z,92.78
2019-02-22T00:17:16.368Z,106.92
2019-02-22T00:17:51.664Z,130.30
2019-02-22T00:18:27.147Z,116.08
2019-02-22T00:19:02.564Z,104.30
2019-02-22T00:19:37.884Z,114.85
2019-02-22T00:20:13.405Z,86.85
2019-02-22T00:20:48.903Z,95.60
2019-02-22T00:21:24.328Z,111.60
2019-02-22T00:21:59.812Z,82.60
2019-02-22T00:22:35.291Z,111.68
2019-02-22T00:23:10.771Z,77.42
2019-02-22T00:23:46.085Z,86.20
2019-02-22T00:24:21.584Z,87.15
2019-02-22T00:24:56.886Z,91.30
2019-02-22T00:25:32.304Z,101.53
2019-02-22T00:26:07.709Z,101.27
2019-02-22T00:26:43.266Z,101.22
2019-02-22T00:27:18.744Z,90.67
2019-02-22T00:27:54.219Z,93.35
2019-02-22T00:28:29.686Z,113.28
2019-02-22T00:29:04.968Z,95.77
2019-02-22T00:29:40.425Z,78.33
2019-02-22T00:30:15.856Z,86.25
2019-02-22T00:30:51.188Z,95.20
2019-02-22T00:31:26.528Z,90.77
2019-02-22T00:32:01.990Z,80.62
2019-02-22T00:32:37.337Z,121.02
2019-02-22T00:33:12.674Z,97.42
2019-02-22T00:33:48.214Z,93.75
2019-02-22T00:34:23.843Z,99.15
2019-02-22T00:34:59.335Z,79.53
2019-02-22T00:35:34.786Z,86.70
2019-02-22T00:36:10.144Z,90.70
2019-02-22T00:36:45.714Z,76.72
2019-02-22T00:37:21.131Z,111.30
2019-02-22T00:37:56.426Z,81.67
2019-02-22T00:38:31.766Z,97.65
2019-02-22T00:39:07.306Z,97.82
2019-02-22T00:39:42.785Z,55.75
2019-02-22T00:40:18.186Z,89.87
2019-02-22T00:40:53.534Z,100.25
2019-02-22T00:41:28.927Z,98.22
2019-02-22T00:42:04.264Z,87.95
2019-02-22T00:42:39.613Z,87.40
2019-02-22T00:43:14.884Z,67.85
2019-02-22T00:43:50.224Z,84.50
2019-02-22T00:44:25.686Z,87.95
2019-02-22T00:45:01.124Z,99.32
2019-02-22T00:45:36.627Z,101.38
2019-02-22T00:46:11.928Z,131.93
2019-02-22T00:46:47.488Z,85.50
2019-02-22T00:47:23.047Z,74.03
2019-02-22T00:47:58.346Z,103.58
2019-02-22T00:48:33.626Z,96.47
2019-02-22T00:49:09.125Z,76.22
2019-02-22T00:49:44.487Z,101.12
2019-02-22T00:50:19.828Z,79.67
2019-02-22T00:50:55.323Z,93.62
2019-02-22T00:51:30.712Z,69.95
2019-02-22T00:52:06.245Z,89.97
2019-02-22T00:52:41.984Z,94.70
2019-02-22T00:53:17.316Z,125.12
2019-02-22T00:53:52.624Z,95.45
2019-02-22T00:54:28.184Z,90.38
2019-02-22T00:55:03.485Z,87.42
2019-02-22T00:55:38.931Z,97.92
2019-02-22T00:56:14.284Z,95.12
2019-02-22T00:56:49.680Z,86.80
2019-02-22T00:57:25.176Z,92.15
2019-02-22T00:58:00.563Z,124.50
2019-02-22T00:58:35.864Z,90.22
2019-02-22T00:59:11.182Z,85.20
2019-02-22T00:59:46.544Z,87.85
2019-02-22T01:00:21.845Z,88.72
2019-02-22T01:00:57.304Z,82.10
2019-02-22T01:01:33.046Z,80.47
2019-02-22T01:02:08.466Z,93.30
2019-02-22T01:02:43.965Z,82.20
2019-02-22T01:03:19.226Z,87.95
2019-02-22T01:03:54.549Z,89.45
2019-02-22T01:04:30.067Z,125.87
2019-02-22T01:05:05.725Z,84.85
2019-02-22T01:05:41.066Z,97.65
2019-02-22T01:06:16.443Z,98.20
2019-02-22T01:06:52.383Z,85.55
2019-02-22T01:07:27.643Z,85.90
2019-02-22T01:08:03.100Z,94.13
2019-02-22T01:08:38.432Z,120.17
2019-02-22T01:09:13.945Z,97.75
2019-02-22T01:09:49.243Z,108.03
2019-02-22T01:10:31.186Z,99.03
2019-02-22T01:11:02.254Z,105.97
2019-02-22T01:11:37.525Z,67.70
2019-02-22T01:12:12.903Z,118.08
2019-02-22T01:12:48.456Z,79.42
2019-02-22T01:13:24.027Z,74.40
2019-02-22T01:13:59.501Z,87.22
2019-02-22T01:14:34.886Z,108.32
2019-02-22T01:15:10.306Z,88.92
2019-02-22T01:15:45.644Z,81.00
2019-02-22T01:16:21.164Z,61.02
2019-02-22T01:16:57.369Z,76.00
2019-02-22T01:17:33.024Z,83.35
2019-02-22T01:18:08.487Z,69.95
2019-02-22T01:18:43.765Z,84.28
2019-02-22T01:19:19.032Z,63.55
2019-02-22T01:19:54.368Z,73.10
2019-02-22T01:20:29.826Z,85.65
2019-02-22T01:21:05.136Z,93.72
2019-02-22T01:21:40.445Z,84.92
2019-02-22T01:22:15.872Z,73.52
2019-02-22T01:22:51.264Z,75.83
2019-02-22T01:23:26.624Z,82.85
2019-02-22T01:24:02.026Z,75.22
2019-02-22T01:24:37.388Z,63.02
2019-02-22T01:25:12.932Z,75.10
2019-02-22T01:25:48.504Z,69.22
2019-02-22T01:26:23.806Z,78.78
2019-02-22T01:26:59.104Z,87.92
2019-02-22T01:27:34.672Z,57.75
2019-02-22T01:28:10.204Z,69.40
2019-02-22T01:28:45.724Z,67.85
2019-02-22T01:29:21.033Z,78.65
2019-02-22T01:29:56.714Z,74.75
2019-02-22T01:30:32.158Z,107.17
2019-02-22T01:31:07.532Z,86.37
2019-02-22T01:31:42.932Z,87.42
2019-02-22T01:32:18.193Z,79.37
2019-02-22T01:32:53.584Z,81.53
2019-02-22T01:33:28.965Z,87.15
2019-02-22T01:34:04.572Z,75.45
2019-02-22T01:34:39.804Z,67.27
2019-02-22T01:35:15.104Z,79.45
2019-02-22T01:35:50.564Z,92.20
2019-02-22T01:36:25.897Z,98.67
2019-02-22T01:37:01.305Z,95.92
2019-02-22T01:37:36.764Z,72.30
2019-02-22T01:38:12.093Z,84.25
2019-02-22T01:38:47.745Z,57.73
2019-02-22T01:39:23.086Z,70.25
2019-02-22T01:39:58.493Z,69.32
2019-02-22T01:40:43.111Z,77.70
2019-02-22T01:41:11.186Z,72.15
2019-02-22T01:41:46.543Z,87.02
2019-02-22T01:42:22.048Z,99.00
2019-02-22T01:42:57.569Z,79.77
2019-02-22T01:43:33.543Z,76.22
2019-02-22T01:44:19.725Z,73.02
2019-02-22T01:44:55.124Z,75.95
2019-02-22T01:45:30.605Z,87.45
2019-02-22T01:46:05.904Z,67.58
2019-02-22T01:46:41.324Z,65.80
2019-02-22T01:47:16.644Z,71.70
2019-02-22T01:47:52.012Z,69.55
2019-02-22T01:48:27.324Z,79.12
2019-02-22T01:49:02.866Z,70.83
2019-02-22T01:49:38.184Z,64.82
2019-02-22T01:50:21.411Z,60.35
2019-02-22T01:50:56.772Z,65.50
2019-02-22T01:51:32.128Z,41.92
2019-02-22T01:52:07.644Z,75.22
2019-02-22T01:52:43.452Z,97.57
2019-02-22T01:53:18.937Z,75.17
2019-02-22T01:53:54.275Z,105.67
2019-02-22T01:54:29.564Z,61.23
2019-02-22T01:55:05.153Z,60.95
2019-02-22T01:55:40.626Z,68.00
2019-02-22T01:56:15.924Z,90.85
2019-02-22T01:56:51.369Z,56.25
2019-02-22T01:57:26.624Z,61.55
2019-02-22T01:58:02.110Z,65.80
2019-02-22T01:58:48.046Z,67.10
2019-02-22T01:59:14.444Z,60.58
2019-02-22T01:59:49.825Z,71.07
2019-02-22T02:00:25.344Z,64.53
2019-02-22T02:01:00.705Z,71.70
2019-02-22T02:01:36.545Z,61.00
2019-02-22T02:02:11.946Z,73.47
2019-02-22T02:02:47.243Z,62.40
2019-02-22T02:03:22.586Z,75.45
2019-02-22T02:03:58.065Z,84.47
2019-02-22T02:04:33.306Z,52.33
2019-02-22T02:05:08.674Z,69.22
2019-02-22T02:05:44.205Z,72.72
2019-02-22T02:06:20.046Z,66.90
2019-02-22T02:06:55.563Z,50.10
2019-02-22T02:07:30.924Z,57.00
2019-02-22T02:08:06.485Z,56.85
2019-02-22T02:08:41.984Z,61.45
2019-02-22T02:09:17.604Z,49.83
2019-02-22T02:09:53.044Z,49.10
2019-02-22T02:10:28.366Z,53.45
2019-02-22T02:11:03.851Z,47.53
2019-02-22T02:11:39.086Z,51.48
2019-02-22T02:12:14.466Z,60.12
2019-02-22T02:12:49.746Z,69.15
2019-02-22T02:13:25.226Z,60.85
2019-02-22T02:14:00.569Z,54.40
2019-02-22T02:14:36.065Z,46.10
2019-02-22T02:15:11.706Z,47.45
2019-02-22T02:15:47.229Z,58.17
2019-02-22T02:16:22.794Z,71.97
2019-02-22T02:16:58.146Z,59.55
2019-02-22T02:17:33.647Z,50.65
2019-02-22T02:18:08.928Z,51.10
2019-02-22T02:18:44.387Z,50.33
2019-02-22T02:19:19.826Z,47.75
2019-02-22T02:19:55.256Z,44.67
2019-02-22T02:20:31.141Z,51.98
2019-02-22T02:21:06.525Z,43.78
2019-02-22T02:21:41.844Z,59.27
2019-02-22T02:22:17.186Z,61.30
2019-02-22T02:22:52.746Z,56.40
2019-02-22T02:23:28.046Z,60.38
2019-02-22T02:24:03.587Z,46.37
2019-02-22T02:24:38.904Z,45.17
2019-02-22T02:25:14.384Z,46.37
2019-02-22T02:25:49.792Z,53.15
2019-02-22T02:26:25.204Z,51.63
2019-02-22T02:27:00.732Z,58.80
2019-02-22T02:27:36.193Z,50.90
2019-02-22T02:28:11.574Z,44.75
2019-02-22T02:28:47.148Z,43.38
2019-02-22T02:29:22.443Z,49.98
2019-02-22T02:29:57.825Z,43.80
2019-02-22T02:30:33.665Z,55.60
2019-02-22T02:31:09.024Z,49.80
2019-02-22T02:31:44.473Z,48.42
2019-02-22T02:32:19.845Z,51.92
2019-02-22T02:32:55.232Z,34.20
2019-02-22T02:33:30.887Z,45.08
2019-02-22T02:34:06.308Z,54.80
2019-02-22T02:34:41.604Z,54.83
2019-02-22T02:35:17.044Z,43.73
2019-02-22T02:35:52.505Z,49.65
2019-02-22T02:36:27.897Z,43.75
2019-02-22T02:37:03.333Z,47.10
2019-02-22T02:37:38.792Z,42.85
2019-02-22T02:38:14.224Z,47.05
2019-02-22T02:38:49.556Z,41.28
2019-02-22T02:39:25.121Z,52.50
2019-02-22T02:40:00.525Z,46.45
2019-02-22T02:40:35.852Z,50.10
2019-02-22T02:41:11.743Z,55.70
2019-02-22T02:41:47.326Z,38.33
2019-02-22T02:42:22.673Z,48.68
2019-02-22T02:42:58.064Z,56.90
2019-02-22T02:43:33.506Z,48.08
2019-02-22T02:44:09.063Z,38.95
2019-02-22T02:44:44.457Z,43.40
2019-02-22T02:45:19.770Z,39.25
2019-02-22T02:45:55.625Z,54.48
2019-02-22T02:46:30.884Z,49.00
2019-02-22T02:47:06.608Z,58.55
2019-02-22T02:47:42.067Z,53.83
2019-02-22T02:48:17.572Z,39.40
2019-02-22T02:48:53.039Z,37.30
2019-02-22T02:49:28.557Z,31.62
2019-02-22T02:50:03.991Z,35.95
2019-02-22T02:50:39.304Z,40.05
2019-02-22T02:51:14.726Z,38.05
2019-02-22T02:51:50.066Z,36.70
2019-02-22T02:52:25.607Z,45.48
2019-02-22T02:53:01.027Z,36.03
2019-02-22T02:53:37.045Z,51.35
2019-02-22T02:54:12.423Z,44.23
2019-02-22T02:54:47.726Z,43.92
2019-02-22T02:55:33.937Z,37.08
2019-02-22T02:56:09.252Z,40.63
2019-02-22T02:56:46.265Z,71.00
2019-02-22T02:57:21.653Z,41.18
2019-02-22T02:57:57.170Z,40.00
2019-02-22T02:58:32.606Z,40.20
2019-02-22T02:59:08.080Z,35.55
2019-02-22T02:59:43.569Z,34.20
2019-02-22T03:00:18.920Z,33.48
2019-02-22T03:00:54.417Z,37.15
2019-02-22T03:01:29.854Z,37.38
2019-02-22T03:02:07.986Z,34.65
2019-02-22T03:02:43.388Z,37.50
2019-02-22T03:03:18.866Z,41.53
2019-02-22T03:03:54.458Z,35.95
2019-02-22T03:04:29.864Z,38.90
2019-02-22T03:05:05.284Z,30.35
2019-02-22T03:05:55.767Z,47.23
2019-02-22T03:06:39.564Z,27.73
2019-02-22T03:07:33.967Z,44.83
2019-02-22T03:08:09.408Z,37.45
2019-02-22T03:08:44.804Z,30.55
2019-02-22T03:09:20.164Z,34.35
2019-02-22T03:09:55.533Z,31.77
2019-02-22T03:10:31.570Z,38.73
2019-02-22T03:11:06.965Z,34.63
2019-02-22T03:11:42.384Z,32.50
2019-02-22T03:12:17.824Z,35.15
2019-02-22T03:12:53.316Z,36.50
2019-02-22T03:13:28.688Z,33.28
2019-02-22T03:14:04.705Z,35.43
2019-02-22T03:14:40.161Z,26.57
2019-02-22T03:15:16.768Z,27.58
2019-02-22T03:15:52.048Z,42.45
2019-02-22T03:16:27.373Z,34.33
2019-02-22T03:17:02.694Z,29.12
2019-02-22T03:17:37.986Z,30.60
2019-02-22T03:18:13.407Z,37.63
2019-02-22T03:18:48.667Z,27.98
2019-02-22T03:19:24.094Z,30.85
2019-02-22T03:19:59.428Z,38.98
2019-02-22T03:20:35.007Z,31.10
2019-02-22T03:21:10.303Z,35.95
2019-02-22T03:21:45.611Z,29.52
2019-02-22T03:22:20.844Z,20.77
2019-02-22T03:22:56.224Z,22.62
2019-02-22T03:23:31.580Z,27.58
2019-02-22T03:24:06.945Z,20.05
2019-02-22T03:24:42.504Z,24.23
2019-02-22T03:25:17.826Z,23.30
2019-02-22T03:25:53.244Z,18.52
2019-02-22T03:26:28.568Z,25.45
2019-02-22T03:27:03.868Z,26.33
2019-02-22T03:27:39.236Z,26.05
2019-02-22T03:28:14.551Z,21.15
2019-02-22T03:28:50.046Z,20.80
2019-02-22T03:29:25.571Z,20.90
2019-02-22T03:30:01.126Z,9.80
2019-02-22T03:30:36.574Z,18.35
2019-02-22T03:31:12.089Z,16.65
2019-02-22T03:31:47.650Z,15.58
2019-02-22T03:32:23.149Z,18.27
2019-02-22T03:32:58.636Z,19.52
2019-02-22T03:33:34.212Z,19.87
2019-02-22T03:34:09.573Z,25.20
2019-02-22T03:34:45.206Z,24.25
2019-02-22T03:35:20.532Z,19.95
2019-02-22T03:35:55.901Z,20.75
2019-02-22T03:36:31.309Z,13.38
2019-02-22T03:37:06.768Z,18.32
2019-02-22T03:37:42.167Z,20.32
2019-02-22T03:38:17.492Z,20.20
2019-02-22T03:38:52.812Z,14.87
2019-02-22T03:39:28.240Z,14.15
2019-02-22T03:40:03.744Z,13.53
2019-02-22T03:40:39.447Z,12.60
2019-02-22T03:41:14.983Z,12.70
2019-02-22T03:41:50.304Z,10.30
2019-02-22T03:42:25.720Z,11.22
2019-02-22T03:43:01.145Z,7.53
2019-02-22T03:43:36.468Z,14.38
2019-02-22T03:44:12.045Z,9.10
2019-02-22T03:44:47.583Z,9.83
2019-02-22T03:45:23.158Z,10.18
2019-02-22T03:45:58.692Z,8.13
2019-02-22T03:46:34.007Z,11.63
2019-02-22T03:47:09.365Z,8.18
2019-02-22T03:47:44.668Z,9.75
2019-02-22T03:48:20.132Z,8.75
2019-02-22T03:48:55.531Z,8.15
2019-02-22T03:49:30.953Z,7.85
2019-02-22T03:50:06.787Z,8.70
2019-02-22T03:50:42.324Z,6.95
2019-02-22T03:51:17.804Z,9.60
2019-02-22T03:51:53.331Z,7.97
2019-02-22T03:52:38.413Z,9.63
2019-02-22T03:53:20.507Z,11.45
2019-02-22T03:54:01.628Z,11.05
2019-02-22T03:54:37.064Z,9.63
2019-02-22T03:55:12.344Z,7.67
2019-02-22T03:55:47.785Z,7.80
2019-02-22T03:56:23.333Z,6.92
2019-02-22T03:56:58.632Z,4.53
2019-02-22T03:57:34.084Z,7.00
2019-02-22T03:58:09.687Z,3.45
2019-02-22T03:58:45.053Z,3.30
2019-02-22T03:59:20.591Z,5.03
2019-02-22T03:59:56.125Z,3.55
2019-02-22T04:00:31.673Z,8.30
2019-02-22T04:01:06.984Z,5.72
2019-02-22T04:01:42.592Z,4.50
2019-02-22T04:02:17.947Z,4.87
2019-02-22T04:02:53.386Z,6.22
2019-02-22T04:03:28.934Z,6.97
2019-02-22T04:04:04.594Z,5.33
2019-02-22T04:04:40.004Z,6.92
2019-02-22T04:05:15.510Z,4.78
2019-02-22T04:05:51.082Z,4.12
2019-02-22T04:06:26.604Z,5.40
2019-02-22T04:07:02.088Z,6.75
2019-02-22T04:07:37.494Z,4.50
2019-02-22T04:08:12.992Z,6.35
2019-02-22T04:08:48.409Z,8.15
2019-02-22T04:09:23.805Z,8.95
2019-02-22T04:09:59.265Z,6.25
2019-02-22T04:10:34.625Z,8.15
2019-02-22T04:11:09.310Z,7.97
2019-02-22T04:11:46.265Z,7.53
2019-02-22T04:12:22.092Z,9.20
2019-02-22T04:12:57.305Z,5.95
2019-02-22T04:13:32.844Z,6.35
2019-02-22T04:14:08.405Z,7.37
2019-02-22T04:14:44.391Z,9.55
2019-02-22T04:15:19.887Z,4.47
2019-02-22T04:15:55.186Z,10.15
2019-02-22T04:16:30.572Z,11.80
2019-02-22T04:17:05.984Z,6.03
2019-02-22T04:17:41.329Z,6.15
2019-02-22T04:18:16.809Z,5.15
2019-02-22T04:18:52.177Z,5.10
2019-02-22T04:19:27.594Z,6.45
2019-02-22T04:20:02.926Z,6.72
2019-02-22T04:21:22.206Z,5.10
2019-02-22T04:21:59.034Z,4.67
2019-02-22T04:22:34.368Z,4.33
2019-02-22T04:23:09.704Z,6.08
2019-02-22T04:23:45.131Z,6.67
2019-02-22T04:24:20.465Z,6.28
2019-02-22T04:24:55.823Z,4.25
2019-02-22T04:25:31.252Z,6.47
2019-02-22T04:26:06.748Z,4.87
2019-02-22T04:26:42.149Z,6.40
2019-02-22T04:27:17.591Z,6.58
2019-02-22T04:27:53.028Z,7.17
2019-02-22T04:28:28.220Z,4.10
2019-02-22T04:29:03.567Z,5.78
2019-02-22T04:29:38.949Z,7.03
2019-02-22T04:30:14.327Z,4.80
2019-02-22T04:30:49.887Z,5.75
2019-02-22T04:31:25.564Z,4.42
2019-02-22T04:32:00.905Z,4.22
2019-02-22T04:32:36.468Z,6.58
2019-02-22T04:33:12.209Z,5.60
2019-02-22T04:33:47.564Z,6.78
2019-02-22T04:34:22.985Z,5.40
2019-02-22T04:34:58.415Z,5.00
2019-02-22T04:35:33.753Z,7.05
2019-02-22T04:36:09.105Z,7.92
2019-02-22T04:36:44.512Z,8.45
2019-02-22T04:37:19.912Z,5.90
2019-02-22T04:37:55.231Z,6.85
2019-02-22T04:38:30.780Z,7.97
2019-02-22T04:39:07.248Z,5.92
2019-02-22T04:39:42.747Z,7.17
2019-02-22T04:40:18.207Z,5.12
2019-02-22T04:40:53.676Z,8.15
2019-02-22T04:41:29.184Z,8.08
2019-02-22T04:42:04.706Z,11.15
2019-02-22T04:42:40.012Z,12.28
2019-02-22T04:43:15.368Z,9.25
2019-02-22T04:43:50.803Z,7.65
2019-02-22T04:44:26.096Z,8.85
2019-02-22T04:45:01.531Z,9.78
2019-02-22T04:45:36.852Z,8.93
2019-02-22T04:46:12.191Z,7.08
2019-02-22T04:46:47.707Z,11.43
2019-02-22T04:47:23.251Z,9.15
2019-02-22T04:47:58.591Z,8.28
2019-02-22T04:48:34.032Z,7.65
2019-02-22T04:49:09.409Z,8.15
2019-02-22T04:49:45.005Z,10.28
2019-02-22T04:50:20.525Z,10.80
2019-02-22T04:50:55.985Z,13.70
2019-02-22T04:51:31.365Z,9.30
2019-02-22T04:52:06.785Z,7.47
2019-02-22T04:52:42.652Z,4.70
2019-02-22T04:53:18.475Z,6.12
2019-02-22T04:53:54.157Z,5.20
2019-02-22T04:54:29.695Z,4.92
2019-02-22T04:55:05.295Z,4.65
2019-02-22T04:55:40.955Z,2.60
2019-02-22T04:56:16.436Z,2.67
2019-02-22T04:56:52.230Z,2.33
2019-02-22T04:57:27.924Z,3.10
2019-02-22T04:58:03.739Z,3.10
2019-02-22T04:58:39.508Z,2.15
2019-02-22T04:59:15.131Z,2.85
2019-02-22T04:59:50.654Z,2.52
2019-02-22T05:00:26.453Z,2.75
2019-02-22T05:01:02.166Z,4.28
2019-02-22T05:01:37.936Z,2.65
2019-02-22T05:02:13.518Z,2.87
2019-02-22T05:02:49.334Z,4.75
2019-02-22T05:03:24.999Z,5.58
2019-02-22T05:04:00.725Z,4.97
2019-02-22T05:04:36.436Z,5.28
2019-02-22T05:05:12.096Z,7.65
2019-02-22T05:05:47.894Z,6.00
2019-02-22T05:06:23.568Z,8.58
2019-02-22T05:06:59.287Z,8.65
2019-02-22T05:07:35.580Z,6.53
2019-02-22T05:08:11.300Z,6.83
2019-02-22T05:08:47.204Z,4.58
2019-02-22T05:09:23.120Z,3.05
2019-02-22T05:09:58.922Z,4.55
2019-02-22T05:10:34.848Z,3.30
2019-02-22T05:11:10.489Z,5.35
2019-02-22T05:11:46.048Z,2.75
2019-02-22T05:12:21.940Z,2.00
2019-02-22T05:12:57.505Z,1.52
2019-02-22T05:13:33.195Z,2.30
2019-02-22T05:14:09.102Z,5.33
2019-02-22T05:14:44.878Z,8.40
2019-02-22T05:15:20.439Z,3.58
2019-02-22T05:15:56.183Z,2.27
2019-02-22T05:16:31.588Z,2.08
2019-02-22T05:17:07.054Z,2.02
2019-02-22T05:17:42.636Z,3.40
2019-02-22T05:18:18.321Z,4.65
2019-02-22T05:18:54.013Z,2.80
2019-02-22T05:19:29.687Z,5.20
2019-02-22T05:20:05.681Z,5.70
2019-02-22T05:20:41.236Z,5.28
2019-02-22T05:21:16.663Z,6.42
2019-02-22T05:21:52.771Z,1.87
2019-02-22T05:22:28.742Z,1.75
2019-02-22T05:23:07.312Z,2.10
2019-02-22T05:23:41.402Z,3.15
2019-02-22T05:24:17.162Z,5.17
2019-02-22T05:24:52.689Z,5.37
2019-02-22T05:25:28.624Z,8.33
2019-02-22T05:26:04.168Z,5.20
2019-02-22T05:26:39.760Z,7.45
2019-02-22T05:27:15.163Z,7.58
2019-02-22T05:27:50.741Z,4.47
2019-02-22T05:28:26.579Z,3.60
2019-02-22T05:29:02.851Z,3.58
2019-02-22T05:29:39.076Z,4.05
2019-02-22T05:30:14.687Z,1.52
2019-02-22T05:30:50.598Z,1.70
2019-02-22T05:31:26.164Z,2.67
2019-02-22T05:32:01.849Z,2.80
2019-02-22T05:32:37.322Z,1.57
2019-02-22T05:33:13.423Z,2.17
2019-02-22T05:33:49.267Z,2.02
2019-02-22T05:34:24.730Z,4.05
2019-02-22T05:35:00.365Z,3.15
2019-02-22T05:35:35.950Z,2.70
2019-02-22T05:36:11.646Z,1.80
2019-02-22T05:36:47.525Z,2.20
2019-02-22T05:37:23.045Z,1.77
2019-02-22T05:37:58.710Z,2.20
2019-02-22T05:38:34.285Z,1.60
2019-02-22T05:39:18.568Z,2.02
2019-02-22T05:39:47.286Z,2.02
2019-02-22T05:40:23.616Z,2.20
2019-02-22T05:40:59.233Z,2.33
2019-02-22T05:41:35.028Z,2.15
2019-02-22T05:42:22.260Z,2.80
2019-02-22T05:42:48.151Z,2.70
2019-02-22T05:43:23.903Z,4.55
2019-02-22T05:43:59.677Z,3.10
2019-02-22T05:44:35.468Z,1.72
2019-02-22T05:45:11.452Z,2.35
2019-02-22T05:45:47.065Z,2.65
2019-02-22T05:46:22.513Z,2.90
2019-02-22T05:47:00.664Z,3.35
2019-02-22T05:47:35.046Z,4.67
2019-02-22T05:48:10.550Z,3.45
2019-02-22T05:48:45.838Z,2.95
2019-02-22T05:49:22.512Z,3.45
2019-02-22T05:49:58.096Z,2.00
2019-02-22T05:50:33.392Z,2.33
2019-02-22T05:51:08.750Z,2.45
2019-02-22T05:51:44.071Z,4.15
2019-02-22T05:52:19.418Z,3.25
2019-02-22T05:52:54.751Z,7.55
2019-02-22T05:53:30.156Z,2.80
2019-02-22T05:54:05.509Z,3.67
2019-02-22T05:54:40.892Z,4.58
2019-02-22T05:55:16.293Z,2.40
2019-02-22T05:55:51.704Z,2.20
2019-02-22T05:56:27.129Z,2.50
2019-02-22T05:57:02.576Z,2.75
2019-02-22T05:57:38.359Z,2.15
2019-02-22T05:58:14.210Z,2.90
2019-02-22T05:58:49.847Z,4.55
2019-02-22T05:59:25.546Z,5.33
2019-02-22T06:00:01.181Z,2.25
2019-02-22T06:00:36.802Z,2.67
2019-02-22T06:01:12.462Z,3.20
2019-02-22T06:01:48.321Z,2.60
2019-02-22T06:02:24.648Z,3.25
2019-02-22T06:03:00.444Z,3.02
2019-02-22T06:03:36.283Z,1.77
2019-02-22T06:04:12.080Z,3.30
2019-02-22T06:04:47.920Z,4.30
2019-02-22T06:05:23.624Z,3.70
2019-02-22T06:05:58.947Z,3.17
2019-02-22T06:06:34.304Z,6.65
2019-02-22T06:07:09.666Z,2.60
2019-02-22T06:07:45.179Z,2.12
2019-02-22T06:08:20.506Z,3.00
2019-02-22T06:08:55.648Z,2.35
2019-02-22T06:09:30.851Z,2.98
2019-02-22T06:10:06.250Z,2.08
2019-02-22T06:10:41.665Z,3.15
2019-02-22T06:11:17.048Z,2.22
2019-02-22T06:11:52.698Z,1.87
2019-02-22T06:12:34.410Z,3.40
2019-02-22T06:13:05.308Z,2.62
2019-02-22T06:13:40.712Z,4.83
2019-02-22T06:14:16.247Z,2.52
2019-02-22T06:14:51.795Z,4.65
2019-02-22T06:15:27.125Z,6.37
2019-02-22T06:16:02.540Z,3.05
2019-02-22T06:16:45.708Z,2.95
2019-02-22T06:17:21.258Z,2.47
2019-02-22T06:17:56.711Z,1.75
2019-02-22T06:18:32.170Z,2.77
2019-02-22T06:19:08.071Z,3.77
2019-02-22T06:19:43.689Z,2.98
2019-02-22T06:20:18.975Z,4.35
2019-02-22T06:20:54.470Z,6.80
2019-02-22T06:21:29.769Z,5.10
2019-02-22T06:22:05.196Z,3.58
2019-02-22T06:22:40.535Z,2.92
2019-02-22T06:23:16.319Z,3.60
2019-02-22T06:23:52.102Z,4.55
2019-02-22T06:24:27.701Z,5.03
2019-02-22T06:25:03.567Z,1.70
2019-02-22T06:25:39.818Z,3.40
2019-02-22T06:26:15.519Z,3.33
2019-02-22T06:26:51.263Z,3.22
2019-02-22T06:27:26.950Z,2.80
2019-02-22T06:28:02.735Z,1.72
2019-02-22T06:28:38.233Z,2.00
2019-02-22T06:29:13.980Z,2.42
2019-02-22T06:29:49.981Z,5.12
2019-02-22T06:30:25.936Z,2.67
2019-02-22T06:31:01.625Z,3.77
2019-02-22T06:31:36.929Z,2.85
2019-02-22T06:32:12.387Z,4.50
2019-02-22T06:32:47.994Z,2.42
2019-02-22T06:33:23.348Z,1.42
2019-02-22T06:33:59.372Z,2.85
2019-02-22T06:34:34.760Z,2.50
2019-02-22T06:35:10.459Z,1.67
2019-02-22T06:35:45.870Z,2.83
2019-02-22T06:36:21.356Z,2.42
2019-02-22T06:37:01.691Z,2.80
2019-02-22T06:37:33.947Z,6.47
2019-02-22T06:38:09.447Z,4.08
2019-02-22T06:38:46.694Z,4.92
2019-02-22T06:39:22.374Z,2.83
2019-02-22T06:39:57.692Z,2.33
2019-02-22T06:40:33.112Z,2.80
2019-02-22T06:41:08.964Z,1.70
2019-02-22T06:41:44.369Z,1.80
2019-02-22T06:42:19.817Z,2.17
2019-02-22T06:42:55.154Z,2.37
2019-02-22T06:43:30.437Z,2.52
2019-02-22T06:44:06.054Z,1.62
2019-02-22T06:44:41.431Z,3.80
2019-02-22T06:45:17.085Z,2.40
2019-02-22T06:45:52.703Z,3.15
2019-02-22T06:46:28.122Z,2.20
2019-02-22T06:47:03.607Z,2.40
2019-02-22T06:47:38.937Z,3.22
2019-02-22T06:48:14.332Z,2.83
2019-02-22T06:48:49.775Z,2.22
2019-02-22T06:49:25.192Z,2.80
2019-02-22T06:50:00.606Z,1.98
2019-02-22T06:50:36.166Z,3.90
2019-02-22T06:51:11.627Z,2.95
2019-02-22T06:51:46.927Z,2.92
2019-02-22T06:52:22.469Z,2.15
2019-02-22T06:52:58.327Z,3.35
2019-02-22T06:53:34.220Z,3.10
2019-02-22T06:54:09.801Z,4.55
2019-02-22T06:54:45.281Z,3.77
2019-02-22T06:55:21.079Z,3.58
2019-02-22T06:55:56.872Z,3.80
2019-02-22T06:56:32.470Z,3.67
2019-02-22T06:57:08.330Z,2.65
2019-02-22T06:57:44.408Z,3.42
2019-02-22T06:58:20.286Z,3.30
2019-02-22T06:58:55.741Z,3.12
2019-02-22T06:59:31.702Z,3.50
2019-02-22T07:00:08.380Z,2.72
2019-02-22T07:00:44.131Z,4.17
2019-02-22T07:01:19.644Z,2.58
2019-02-22T07:01:55.025Z,2.85
2019-02-22T07:02:30.424Z,3.37
2019-02-22T07:03:05.806Z,5.05
2019-02-22T07:03:41.163Z,3.87
2019-02-22T07:04:16.776Z,3.12
2019-02-22T07:04:52.046Z,5.92
2019-02-22T07:05:27.427Z,3.98
2019-02-22T07:06:05.498Z,2.37
2019-02-22T07:06:39.904Z,4.28
2019-02-22T07:07:15.545Z,4.05
2019-02-22T07:07:50.804Z,5.65
2019-02-22T07:08:26.750Z,3.83
2019-02-22T07:09:02.050Z,4.53
2019-02-22T07:09:37.644Z,4.45
2019-02-22T07:10:13.126Z,3.95
2019-02-22T07:11:10.588Z,7.50
2019-02-22T07:12:05.078Z,9.20
2019-02-22T07:12:57.022Z,3.72
2019-02-22T07:13:31.072Z,4.97
2019-02-22T07:14:06.414Z,4.40
2019-02-22T07:14:41.778Z,5.58
2019-02-22T07:15:17.476Z,5.55
2019-02-22T07:15:52.813Z,4.40
2019-02-22T07:16:28.098Z,4.55
2019-02-22T07:17:03.637Z,8.53
2019-02-22T07:17:39.094Z,4.25
2019-02-22T07:18:14.654Z,4.50
2019-02-22T07:18:50.246Z,3.35
2019-02-22T07:19:25.673Z,4.78
2019-02-22T07:20:01.066Z,5.00
2019-02-22T07:20:36.568Z,5.92
2019-02-22T07:21:11.865Z,5.45
2019-02-22T07:21:52.814Z,4.75
2019-02-22T07:22:24.611Z,3.77
2019-02-22T07:23:00.130Z,3.27
2019-02-22T07:23:36.059Z,7.90
2019-02-22T07:24:11.410Z,5.35
2019-02-22T07:24:46.691Z,3.70
2019-02-22T07:25:22.245Z,3.33
2019-02-22T07:25:57.751Z,3.90
2019-02-22T07:26:33.090Z,3.47
2019-02-22T07:27:08.472Z,4.30
2019-02-22T07:27:44.070Z,7.00
2019-02-22T07:28:19.446Z,5.37
2019-02-22T07:28:54.745Z,4.47
2019-02-22T07:29:30.226Z,3.60
2019-02-22T07:30:06.210Z,4.75
2019-02-22T07:30:41.755Z,2.95
2019-02-22T07:31:17.314Z,3.60
2019-02-22T07:31:52.614Z,3.95
2019-02-22T07:32:27.965Z,6.42
2019-02-22T07:33:03.538Z,3.50
2019-02-22T07:33:39.033Z,4.30
2019-02-22T07:34:14.426Z,3.08
2019-02-22T07:34:50.465Z,4.83
2019-02-22T07:35:26.063Z,4.58
2019-02-22T07:36:01.666Z,3.90
2019-02-22T07:36:37.119Z,3.75
2019-02-22T07:37:12.725Z,6.20
2019-02-22T07:37:48.173Z,5.28
2019-02-22T07:38:23.588Z,4.00
2019-02-22T07:38:59.182Z,3.33
2019-02-22T07:39:34.545Z,5.22
2019-02-22T07:40:10.205Z,4.12
2019-02-22T07:40:45.605Z,2.27
2019-02-22T07:41:21.130Z,7.45
2019-02-22T07:41:56.470Z,2.92
2019-02-22T07:42:31.876Z,7.05
2019-02-22T07:43:08.290Z,2.85
2019-02-22T07:43:43.893Z,3.33
2019-02-22T07:44:19.447Z,4.22
2019-02-22T07:44:55.508Z,4.10
2019-02-22T07:45:31.090Z,3.47
2019-02-22T07:46:06.527Z,5.37
2019-02-22T07:46:41.946Z,3.92
2019-02-22T07:47:17.443Z,4.10
2019-02-22T07:47:52.700Z,2.20
2019-02-22T07:48:28.124Z,3.17
2019-02-22T07:49:03.466Z,3.22